Aérodrome :
LOGIN :

S'inscrire | Disclaimer

   EN    FR    IT 

 










Légende :    VFR   VFR Marginal   IFR   IFR Intensif   IFR Très Intensif
Visi : 
Plafond : 
>= 8 km
>= 3000ft
5 à 8 km
1000 à 3000 ft
1500m à 5 km
500 à 1000 ft
800 à 1500m
200 à 500 ft
< 800m
< 200 ft
Symboles :   Orages  Brouillard  Fortes neiges  Fortes précipitations  Vent > 20 kt
SIGMETs :   Divers  Orages  Givrage  Turbulence  Onde Orograph.  Cendres Volcan.






- Altitude de l'aérodrome : 364 ft


LFAQ - Albert Bray

DERNIER METAR :
  • 070400Z AUTO 29006KT 4900 BR SCT020/// BKN030/// OVC036/// ///TCU 01/01 Q1020

METARs EXPIRÉS :
  • 070330Z AUTO 29007KT 4900 -RA BR BKN026 BKN031 BKN037 01/01 Q1020
  • 070300Z AUTO 29007KT 5000 BR NSC 01/01 Q1020
  • 070230Z AUTO 28007KT 3700 BR NSC 00/00 Q1020
  • 070200Z AUTO 29006KT 4100 BR FEW038/// BKN058/// ///TCU 01/01 Q1020
  • 070130Z AUTO 28005KT 4600 BR OVC044 01/01 Q1020

Prévision TAF périmée.



MET'MAP, la Météo Aéronautique d'un coup d'oeil ! - Copyright ORBIFLY Décembre 2007 - Disclaimer

ORBIFLY MET'MAP TEAM :

Programmation & Développement : Alexandra Zaïnal
Sur une idée originale de : Baudouin d'Aumeries
Soutien technique & logistique : Manuel Goepfert
Assistance : Marc-Olivier Méhu




SOURCES & CREDITS :

   NOAA